sensor_id;sensor_type;location;lat;lon;timestamp;temperature;humidity
11748;DHT22;5931;48.832;9.072;2023-09-19T00:01:29;17.10;99.90
11748;DHT22;5931;48.832;9.072;2023-09-19T00:03:57;17.10;99.90
11748;DHT22;5931;48.832;9.072;2023-09-19T00:06:24;17.00;99.90
11748;DHT22;5931;48.832;9.072;2023-09-19T00:08:54;17.00;99.90
11748;DHT22;5931;48.832;9.072;2023-09-19T00:11:20;17.00;99.90
11748;DHT22;5931;48.832;9.072;2023-09-19T00:13:47;17.00;99.90
11748;DHT22;5931;48.832;9.072;2023-09-19T00:16:15;17.00;99.90
11748;DHT22;5931;48.832;9.072;2023-09-19T00:18:41;17.00;99.90
11748;DHT22;5931;48.832;9.072;2023-09-19T00:21:07;17.00;99.90
11748;DHT22;5931;48.832;9.072;2023-09-19T00:23:33;16.90;99.90
11748;DHT22;5931;48.832;9.072;2023-09-19T00:25:59;16.90;99.90
11748;DHT22;5931;48.832;9.072;2023-09-19T00:28:26;16.90;99.90
11748;DHT22;5931;48.832;9.072;2023-09-19T00:30:52;16.90;99.90
11748;DHT22;5931;48.832;9.072;2023-09-19T00:33:21;16.90;99.90
11748;DHT22;5931;48.832;9.072;2023-09-19T00:35:51;16.90;99.90
11748;DHT22;5931;48.832;9.072;2023-09-19T00:38:17;16.90;99.90
11748;DHT22;5931;48.832;9.072;2023-09-19T00:40:47;16.90;99.90
11748;DHT22;5931;48.832;9.072;2023-09-19T00:43:13;16.80;99.90
11748;DHT22;5931;48.832;9.072;2023-09-19T00:45:42;16.80;99.90
11748;DHT22;5931;48.832;9.072;2023-09-19T00:48:08;16.80;99.90
11748;DHT22;5931;48.832;9.072;2023-09-19T00:50:35;16.80;99.90
11748;DHT22;5931;48.832;9.072;2023-09-19T00:53:02;16.80;99.90
11748;DHT22;5931;48.832;9.072;2023-09-19T00:55:34;16.80;99.90
11748;DHT22;5931;48.832;9.072;2023-09-19T00:58:00;16.80;99.90
11748;DHT22;5931;48.832;9.072;2023-09-19T01:00:26;16.80;99.90
11748;DHT22;5931;48.832;9.072;2023-09-19T01:02:52;16.80;99.90
11748;DHT22;5931;48.832;9.072;2023-09-19T01:05:19;16.80;99.90
11748;DHT22;5931;48.832;9.072;2023-09-19T01:07:45;16.90;99.90
11748;DHT22;5931;48.832;9.072;2023-09-19T01:10:16;16.90;99.90
11748;DHT22;5931;48.832;9.072;2023-09-19T01:13:01;16.90;99.90
11748;DHT22;5931;48.832;9.072;2023-09-19T01:18:27;16.80;99.90
11748;DHT22;5931;48.832;9.072;2023-09-19T01:24:04;16.80;99.90
11748;DHT22;5931;48.832;9.072;2023-09-19T01:29:41;16.70;99.90
11748;DHT22;5931;48.832;9.072;2023-09-19T01:32:10;16.70;99.90
11748;DHT22;5931;48.832;9.072;2023-09-19T01:37:20;16.50;99.90
11748;DHT22;5931;48.832;9.072;2023-09-19T01:40:10;16.40;99.90
11748;DHT22;5931;48.832;9.072;2023-09-19T01:43:05;16.40;99.90
11748;DHT22;5931;48.832;9.072;2023-09-19T01:51:14;16.40;99.90
11748;DHT22;5931;48.832;9.072;2023-09-19T01:53:53;16.40;99.90
11748;DHT22;5931;48.832;9.072;2023-09-19T01:59:08;16.20;99.90
11748;DHT22;5931;48.832;9.072;2023-09-19T02:01:37;16.20;99.90
11748;DHT22;5931;48.832;9.072;2023-09-19T02:04:03;16.10;99.90
11748;DHT22;5931;48.832;9.072;2023-09-19T02:06:32;16.10;99.90
11748;DHT22;5931;48.832;9.072;2023-09-19T02:08:57;16.00;99.90
11748;DHT22;5931;48.832;9.072;2023-09-19T02:11:24;16.00;99.90
11748;DHT22;5931;48.832;9.072;2023-09-19T02:13:50;15.90;99.90
11748;DHT22;5931;48.832;9.072;2023-09-19T02:16:20;15.90;99.90
11748;DHT22;5931;48.832;9.072;2023-09-19T02:18:48;15.90;99.90
11748;DHT22;5931;48.832;9.072;2023-09-19T02:21:15;15.80;99.90
11748;DHT22;5931;48.832;9.072;2023-09-19T02:23:43;15.80;99.90
11748;DHT22;5931;48.832;9.072;2023-09-19T02:26:09;15.80;99.90
11748;DHT22;5931;48.832;9.072;2023-09-19T02:28:34;15.80;99.90
11748;DHT22;5931;48.832;9.072;2023-09-19T02:31:01;15.80;99.90
11748;DHT22;5931;48.832;9.072;2023-09-19T02:33:27;15.80;99.90
11748;DHT22;5931;48.832;9.072;2023-09-19T02:35:58;15.80;99.90
11748;DHT22;5931;48.832;9.072;2023-09-19T02:38:25;15.70;99.90
11748;DHT22;5931;48.832;9.072;2023-09-19T02:40:52;15.60;99.90
11748;DHT22;5931;48.832;9.072;2023-09-19T02:43:18;15.50;99.90
11748;DHT22;5931;48.832;9.072;2023-09-19T02:45:45;15.50;99.90
11748;DHT22;5931;48.832;9.072;2023-09-19T02:48:12;15.50;99.90
11748;DHT22;5931;48.832;9.072;2023-09-19T02:50:38;15.50;99.90
11748;DHT22;5931;48.832;9.072;2023-09-19T02:53:05;15.60;99.90
11748;DHT22;5931;48.832;9.072;2023-09-19T02:55:32;15.70;99.90
11748;DHT22;5931;48.832;9.072;2023-09-19T02:57:58;15.80;99.90
11748;DHT22;5931;48.832;9.072;2023-09-19T03:00:24;15.80;99.90
11748;DHT22;5931;48.832;9.072;2023-09-19T03:02:53;15.90;99.90
11748;DHT22;5931;48.832;9.072;2023-09-19T03:05:20;15.90;99.90
11748;DHT22;5931;48.832;9.072;2023-09-19T03:07:50;15.90;99.90
11748;DHT22;5931;48.832;9.072;2023-09-19T03:10:20;16.00;99.90
11748;DHT22;5931;48.832;9.072;2023-09-19T03:12:49;16.00;99.90
11748;DHT22;5931;48.832;9.072;2023-09-19T03:15:15;15.90;99.90
11748;DHT22;5931;48.832;9.072;2023-09-19T03:17:45;15.90;99.90
11748;DHT22;5931;48.832;9.072;2023-09-19T03:20:11;15.90;99.90
11748;DHT22;5931;48.832;9.072;2023-09-19T03:22:39;15.90;99.90
11748;DHT22;5931;48.832;9.072;2023-09-19T03:25:06;16.00;99.90
11748;DHT22;5931;48.832;9.072;2023-09-19T03:27:38;16.00;99.90
11748;DHT22;5931;48.832;9.072;2023-09-19T03:30:05;16.10;99.90
11748;DHT22;5931;48.832;9.072;2023-09-19T03:32:37;16.10;99.90
11748;DHT22;5931;48.832;9.072;2023-09-19T03:35:08;16.20;99.90
11748;DHT22;5931;48.832;9.072;2023-09-19T03:37:41;16.20;99.90
11748;DHT22;5931;48.832;9.072;2023-09-19T03:40:08;16.20;99.90
11748;DHT22;5931;48.832;9.072;2023-09-19T03:42:38;16.20;99.90
11748;DHT22;5931;48.832;9.072;2023-09-19T03:45:05;16.10;99.90
11748;DHT22;5931;48.832;9.072;2023-09-19T03:47:31;16.10;99.90
11748;DHT22;5931;48.832;9.072;2023-09-19T03:49:59;16.10;99.90
11748;DHT22;5931;48.832;9.072;2023-09-19T03:52:25;16.00;99.90
11748;DHT22;5931;48.832;9.072;2023-09-19T03:54:51;16.00;99.90
11748;DHT22;5931;48.832;9.072;2023-09-19T03:57:17;15.90;99.90
11748;DHT22;5931;48.832;9.072;2023-09-19T03:59:46;15.80;99.90
11748;DHT22;5931;48.832;9.072;2023-09-19T04:02:13;15.70;99.90
11748;DHT22;5931;48.832;9.072;2023-09-19T04:04:49;15.60;99.90
11748;DHT22;5931;48.832;9.072;2023-09-19T04:07:14;15.50;99.90
11748;DHT22;5931;48.832;9.072;2023-09-19T04:09:40;15.40;99.90
11748;DHT22;5931;48.832;9.072;2023-09-19T04:12:07;15.40;99.90
11748;DHT22;5931;48.832;9.072;2023-09-19T04:14:36;15.30;99.90
11748;DHT22;5931;48.832;9.072;2023-09-19T04:17:02;15.30;99.90
11748;DHT22;5931;48.832;9.072;2023-09-19T04:19:29;15.30;99.90
11748;DHT22;5931;48.832;9.072;2023-09-19T04:21:54;15.30;99.90
11748;DHT22;5931;48.832;9.072;2023-09-19T04:24:20;15.20;99.90
11748;DHT22;5931;48.832;9.072;2023-09-19T04:26:46;15.20;99.90
11748;DHT22;5931;48.832;9.072;2023-09-19T04:29:11;15.20;99.90
11748;DHT22;5931;48.832;9.072;2023-09-19T04:31:39;15.20;99.90
11748;DHT22;5931;48.832;9.072;2023-09-19T04:34:06;15.20;99.90
11748;DHT22;5931;48.832;9.072;2023-09-19T04:36:31;15.20;99.90
11748;DHT22;5931;48.832;9.072;2023-09-19T04:38:57;15.20;99.90
11748;DHT22;5931;48.832;9.072;2023-09-19T04:41:23;15.20;99.90
11748;DHT22;5931;48.832;9.072;2023-09-19T04:43:50;15.20;99.90
11748;DHT22;5931;48.832;9.072;2023-09-19T04:46:16;15.20;99.90
11748;DHT22;5931;48.832;9.072;2023-09-19T04:48:43;15.20;99.90
11748;DHT22;5931;48.832;9.072;2023-09-19T04:51:09;15.20;99.90
11748;DHT22;5931;48.832;9.072;2023-09-19T04:53:36;15.30;99.90
11748;DHT22;5931;48.832;9.072;2023-09-19T04:56:01;15.40;99.90
11748;DHT22;5931;48.832;9.072;2023-09-19T04:58:29;15.40;99.90
11748;DHT22;5931;48.832;9.072;2023-09-19T05:00:55;15.40;99.90
11748;DHT22;5931;48.832;9.072;2023-09-19T05:03:21;15.40;99.90
11748;DHT22;5931;48.832;9.072;2023-09-19T05:05:48;15.40;99.90
11748;DHT22;5931;48.832;9.072;2023-09-19T05:08:14;15.40;99.90
11748;DHT22;5931;48.832;9.072;2023-09-19T05:10:40;15.40;99.90
11748;DHT22;5931;48.832;9.072;2023-09-19T05:13:06;15.30;99.90
11748;DHT22;5931;48.832;9.072;2023-09-19T05:15:35;15.30;99.90
11748;DHT22;5931;48.832;9.072;2023-09-19T05:18:02;15.40;99.90
11748;DHT22;5931;48.832;9.072;2023-09-19T05:20:28;15.40;99.90
11748;DHT22;5931;48.832;9.072;2023-09-19T05:23:04;15.40;99.90
11748;DHT22;5931;48.832;9.072;2023-09-19T05:25:33;15.40;99.90
11748;DHT22;5931;48.832;9.072;2023-09-19T05:28:02;15.40;99.90
11748;DHT22;5931;48.832;9.072;2023-09-19T05:30:31;15.40;99.90
11748;DHT22;5931;48.832;9.072;2023-09-19T05:32:57;15.30;99.90
11748;DHT22;5931;48.832;9.072;2023-09-19T05:35:24;15.30;99.90
11748;DHT22;5931;48.832;9.072;2023-09-19T05:37:53;15.30;99.90
11748;DHT22;5931;48.832;9.072;2023-09-19T05:40:20;15.20;99.90
11748;DHT22;5931;48.832;9.072;2023-09-19T05:42:46;15.20;99.90
11748;DHT22;5931;48.832;9.072;2023-09-19T05:45:13;15.20;99.90
11748;DHT22;5931;48.832;9.072;2023-09-19T05:47:40;15.20;99.90
11748;DHT22;5931;48.832;9.072;2023-09-19T05:50:07;15.20;99.90
11748;DHT22;5931;48.832;9.072;2023-09-19T05:52:35;15.20;99.90
11748;DHT22;5931;48.832;9.072;2023-09-19T05:55:00;15.10;99.90
11748;DHT22;5931;48.832;9.072;2023-09-19T05:57:26;15.10;99.90
11748;DHT22;5931;48.832;9.072;2023-09-19T05:59:53;15.00;99.90
11748;DHT22;5931;48.832;9.072;2023-09-19T06:02:18;14.90;99.90
11748;DHT22;5931;48.832;9.072;2023-09-19T06:04:45;14.80;99.90
11748;DHT22;5931;48.832;9.072;2023-09-19T06:07:11;14.70;99.90
11748;DHT22;5931;48.832;9.072;2023-09-19T06:09:38;14.70;99.90
11748;DHT22;5931;48.832;9.072;2023-09-19T06:12:04;14.70;99.90
11748;DHT22;5931;48.832;9.072;2023-09-19T06:14:30;14.80;99.90
11748;DHT22;5931;48.832;9.072;2023-09-19T06:16:56;14.80;99.90
11748;DHT22;5931;48.832;9.072;2023-09-19T06:19:22;14.90;99.90
11748;DHT22;5931;48.832;9.072;2023-09-19T06:21:52;14.90;99.90
11748;DHT22;5931;48.832;9.072;2023-09-19T06:24:19;15.00;99.90
11748;DHT22;5931;48.832;9.072;2023-09-19T06:26:46;15.10;99.90
11748;DHT22;5931;48.832;9.072;2023-09-19T06:29:13;15.10;99.90
11748;DHT22;5931;48.832;9.072;2023-09-19T06:31:39;15.10;99.90
11748;DHT22;5931;48.832;9.072;2023-09-19T06:34:05;15.20;99.90
11748;DHT22;5931;48.832;9.072;2023-09-19T06:36:32;15.20;99.90
11748;DHT22;5931;48.832;9.072;2023-09-19T06:38:58;15.30;99.90
11748;DHT22;5931;48.832;9.072;2023-09-19T06:41:24;15.30;99.90
11748;DHT22;5931;48.832;9.072;2023-09-19T06:43:50;15.40;99.90
11748;DHT22;5931;48.832;9.072;2023-09-19T06:46:19;15.50;99.90
11748;DHT22;5931;48.832;9.072;2023-09-19T06:48:44;15.60;99.90
11748;DHT22;5931;48.832;9.072;2023-09-19T06:51:13;15.70;99.90
11748;DHT22;5931;48.832;9.072;2023-09-19T06:53:41;15.80;99.90
11748;DHT22;5931;48.832;9.072;2023-09-19T06:56:07;15.80;99.90
11748;DHT22;5931;48.832;9.072;2023-09-19T06:58:33;15.80;99.90
11748;DHT22;5931;48.832;9.072;2023-09-19T07:00:58;15.80;99.90
11748;DHT22;5931;48.832;9.072;2023-09-19T07:03:24;15.90;99.90
11748;DHT22;5931;48.832;9.072;2023-09-19T07:05:52;15.80;99.90
11748;DHT22;5931;48.832;9.072;2023-09-19T07:08:18;15.80;99.90
11748;DHT22;5931;48.832;9.072;2023-09-19T07:10:45;15.90;99.90
11748;DHT22;5931;48.832;9.072;2023-09-19T07:13:14;15.90;99.90
11748;DHT22;5931;48.832;9.072;2023-09-19T07:15:43;15.90;99.90
11748;DHT22;5931;48.832;9.072;2023-09-19T07:18:15;15.90;99.90
11748;DHT22;5931;48.832;9.072;2023-09-19T07:20:42;15.90;99.90
11748;DHT22;5931;48.832;9.072;2023-09-19T07:23:18;15.90;99.90
11748;DHT22;5931;48.832;9.072;2023-09-19T07:25:44;16.00;99.90
11748;DHT22;5931;48.832;9.072;2023-09-19T07:28:10;16.00;99.90
11748;DHT22;5931;48.832;9.072;2023-09-19T07:30:36;16.00;99.90
11748;DHT22;5931;48.832;9.072;2023-09-19T07:33:07;16.10;99.90
11748;DHT22;5931;48.832;9.072;2023-09-19T07:35:33;16.20;99.90
11748;DHT22;5931;48.832;9.072;2023-09-19T07:37:59;16.20;99.90
11748;DHT22;5931;48.832;9.072;2023-09-19T07:40:27;16.30;99.90
11748;DHT22;5931;48.832;9.072;2023-09-19T07:42:55;16.40;99.90
11748;DHT22;5931;48.832;9.072;2023-09-19T07:45:21;16.50;99.90
11748;DHT22;5931;48.832;9.072;2023-09-19T07:47:49;16.50;99.90
11748;DHT22;5931;48.832;9.072;2023-09-19T07:50:16;16.40;99.90
11748;DHT22;5931;48.832;9.072;2023-09-19T07:52:44;16.40;99.90
11748;DHT22;5931;48.832;9.072;2023-09-19T07:55:10;16.40;99.90
11748;DHT22;5931;48.832;9.072;2023-09-19T07:57:46;16.60;99.90
11748;DHT22;5931;48.832;9.072;2023-09-19T08:00:13;16.70;99.90
11748;DHT22;5931;48.832;9.072;2023-09-19T08:02:39;16.80;99.90
11748;DHT22;5931;48.832;9.072;2023-09-19T08:05:07;16.90;99.90
11748;DHT22;5931;48.832;9.072;2023-09-19T08:07:39;17.00;99.90
11748;DHT22;5931;48.832;9.072;2023-09-19T08:10:06;17.10;99.90
11748;DHT22;5931;48.832;9.072;2023-09-19T08:12:34;17.20;99.90
11748;DHT22;5931;48.832;9.072;2023-09-19T08:15:02;17.40;99.90
11748;DHT22;5931;48.832;9.072;2023-09-19T08:17:28;17.50;99.90
11748;DHT22;5931;48.832;9.072;2023-09-19T08:19:53;17.50;99.90
11748;DHT22;5931;48.832;9.072;2023-09-19T08:22:20;17.60;99.90
11748;DHT22;5931;48.832;9.072;2023-09-19T08:24:45;17.60;99.90
11748;DHT22;5931;48.832;9.072;2023-09-19T08:27:13;17.80;99.90
11748;DHT22;5931;48.832;9.072;2023-09-19T08:29:38;18.00;99.90
11748;DHT22;5931;48.832;9.072;2023-09-19T08:32:04;18.10;99.90
11748;DHT22;5931;48.832;9.072;2023-09-19T08:34:30;18.20;99.90
11748;DHT22;5931;48.832;9.072;2023-09-19T08:36:58;18.30;99.90
11748;DHT22;5931;48.832;9.072;2023-09-19T08:39:25;18.20;99.90
11748;DHT22;5931;48.832;9.072;2023-09-19T08:42:00;18.10;99.90
11748;DHT22;5931;48.832;9.072;2023-09-19T08:44:27;18.10;99.90
11748;DHT22;5931;48.832;9.072;2023-09-19T08:47:10;18.10;99.90
11748;DHT22;5931;48.832;9.072;2023-09-19T08:49:58;18.20;99.90
11748;DHT22;5931;48.832;9.072;2023-09-19T08:52:32;18.10;99.90
11748;DHT22;5931;48.832;9.072;2023-09-19T08:55:02;18.10;99.90
11748;DHT22;5931;48.832;9.072;2023-09-19T08:57:33;18.20;99.90
11748;DHT22;5931;48.832;9.072;2023-09-19T09:00:02;18.40;99.90
11748;DHT22;5931;48.832;9.072;2023-09-19T09:02:31;18.60;99.90
11748;DHT22;5931;48.832;9.072;2023-09-19T09:04:59;18.80;99.90
11748;DHT22;5931;48.832;9.072;2023-09-19T09:07:25;18.90;99.90
11748;DHT22;5931;48.832;9.072;2023-09-19T09:09:54;19.10;99.90
11748;DHT22;5931;48.832;9.072;2023-09-19T09:12:19;19.30;99.90
11748;DHT22;5931;48.832;9.072;2023-09-19T09:14:46;19.50;99.90
11748;DHT22;5931;48.832;9.072;2023-09-19T09:17:13;19.80;99.90
11748;DHT22;5931;48.832;9.072;2023-09-19T09:19:38;19.90;99.90
11748;DHT22;5931;48.832;9.072;2023-09-19T09:22:11;19.90;99.90
11748;DHT22;5931;48.832;9.072;2023-09-19T09:24:50;19.90;99.90
11748;DHT22;5931;48.832;9.072;2023-09-19T09:27:16;19.70;99.90
11748;DHT22;5931;48.832;9.072;2023-09-19T09:29:49;19.60;99.90
11748;DHT22;5931;48.832;9.072;2023-09-19T09:32:28;19.80;99.90
11748;DHT22;5931;48.832;9.072;2023-09-19T09:34:59;19.80;99.90
11748;DHT22;5931;48.832;9.072;2023-09-19T09:37:26;20.00;99.90
11748;DHT22;5931;48.832;9.072;2023-09-19T09:40:00;19.90;99.90
11748;DHT22;5931;48.832;9.072;2023-09-19T09:42:45;19.80;99.90
11748;DHT22;5931;48.832;9.072;2023-09-19T09:45:24;19.80;99.90
11748;DHT22;5931;48.832;9.072;2023-09-19T09:47:59;19.80;99.90
11748;DHT22;5931;48.832;9.072;2023-09-19T09:50:35;19.80;99.90
11748;DHT22;5931;48.832;9.072;2023-09-19T09:53:20;19.70;99.90
11748;DHT22;5931;48.832;9.072;2023-09-19T09:56:05;19.60;99.90
11748;DHT22;5931;48.832;9.072;2023-09-19T09:58:50;19.80;99.90
11748;DHT22;5931;48.832;9.072;2023-09-19T10:01:21;19.90;99.90
11748;DHT22;5931;48.832;9.072;2023-09-19T10:03:57;20.00;99.90
11748;DHT22;5931;48.832;9.072;2023-09-19T10:06:23;20.10;99.90
11748;DHT22;5931;48.832;9.072;2023-09-19T10:09:05;20.10;99.90
11748;DHT22;5931;48.832;9.072;2023-09-19T10:11:47;20.20;99.90
11748;DHT22;5931;48.832;9.072;2023-09-19T10:14:20;20.00;99.90
11748;DHT22;5931;48.832;9.072;2023-09-19T10:16:49;19.80;99.90
11748;DHT22;5931;48.832;9.072;2023-09-19T10:19:25;19.70;99.90
11748;DHT22;5931;48.832;9.072;2023-09-19T10:21:55;19.60;99.90
11748;DHT22;5931;48.832;9.072;2023-09-19T10:24:22;19.60;99.90
11748;DHT22;5931;48.832;9.072;2023-09-19T10:26:50;19.70;99.90
11748;DHT22;5931;48.832;9.072;2023-09-19T10:29:17;19.90;99.90
11748;DHT22;5931;48.832;9.072;2023-09-19T10:31:45;20.00;99.90
11748;DHT22;5931;48.832;9.072;2023-09-19T10:34:15;20.20;99.90
11748;DHT22;5931;48.832;9.072;2023-09-19T10:36:44;20.20;99.90
11748;DHT22;5931;48.832;9.072;2023-09-19T10:39:11;20.30;99.90
11748;DHT22;5931;48.832;9.072;2023-09-19T10:41:39;20.30;99.90
11748;DHT22;5931;48.832;9.072;2023-09-19T10:44:05;20.50;99.90
11748;DHT22;5931;48.832;9.072;2023-09-19T10:46:34;20.70;99.90
11748;DHT22;5931;48.832;9.072;2023-09-19T10:49:00;20.90;99.90
11748;DHT22;5931;48.832;9.072;2023-09-19T10:51:30;21.30;99.90
11748;DHT22;5931;48.832;9.072;2023-09-19T10:54:07;21.70;99.90
11748;DHT22;5931;48.832;9.072;2023-09-19T10:56:38;21.80;99.90
11748;DHT22;5931;48.832;9.072;2023-09-19T10:59:08;22.00;99.90
11748;DHT22;5931;48.832;9.072;2023-09-19T11:01:49;22.30;99.90
11748;DHT22;5931;48.832;9.072;2023-09-19T11:04:52;22.20;99.90
11748;DHT22;5931;48.832;9.072;2023-09-19T11:07:19;22.20;99.90
11748;DHT22;5931;48.832;9.072;2023-09-19T11:16:04;22.40;99.90
11748;DHT22;5931;48.832;9.072;2023-09-19T11:26:48;22.80;99.90
11748;DHT22;5931;48.832;9.072;2023-09-19T11:29:30;23.10;99.90
11748;DHT22;5931;48.832;9.072;2023-09-19T11:31:57;23.40;99.90
11748;DHT22;5931;48.832;9.072;2023-09-19T11:40:24;22.50;99.90
11748;DHT22;5931;48.832;9.072;2023-09-19T11:42:47;22.30;99.90
11748;DHT22;5931;48.832;9.072;2023-09-19T11:48:16;22.20;99.90
11748;DHT22;5931;48.832;9.072;2023-09-19T11:50:44;22.10;99.90
11748;DHT22;5931;48.832;9.072;2023-09-19T11:53:11;22.50;99.90
11748;DHT22;5931;48.832;9.072;2023-09-19T11:55:41;22.60;99.90
11748;DHT22;5931;48.832;9.072;2023-09-19T11:58:09;22.40;99.90
11748;DHT22;5931;48.832;9.072;2023-09-19T12:00:38;22.00;99.90
11748;DHT22;5931;48.832;9.072;2023-09-19T12:03:09;21.70;99.90
11748;DHT22;5931;48.832;9.072;2023-09-19T12:05:35;21.80;99.90
11748;DHT22;5931;48.832;9.072;2023-09-19T12:08:03;21.90;99.90
11748;DHT22;5931;48.832;9.072;2023-09-19T12:10:29;22.00;99.90
11748;DHT22;5931;48.832;9.072;2023-09-19T12:12:55;22.10;99.90
11748;DHT22;5931;48.832;9.072;2023-09-19T12:15:28;21.80;99.90
11748;DHT22;5931;48.832;9.072;2023-09-19T12:18:00;21.60;99.90
11748;DHT22;5931;48.832;9.072;2023-09-19T12:20:43;21.70;99.90
11748;DHT22;5931;48.832;9.072;2023-09-19T12:23:15;21.60;99.90
11748;DHT22;5931;48.832;9.072;2023-09-19T12:25:45;21.30;99.90
11748;DHT22;5931;48.832;9.072;2023-09-19T12:28:13;21.00;99.90
11748;DHT22;5931;48.832;9.072;2023-09-19T12:30:39;20.90;99.90
11748;DHT22;5931;48.832;9.072;2023-09-19T12:33:19;21.20;99.90
11748;DHT22;5931;48.832;9.072;2023-09-19T12:35:46;21.50;99.90
11748;DHT22;5931;48.832;9.072;2023-09-19T12:38:23;21.60;99.90
11748;DHT22;5931;48.832;9.072;2023-09-19T12:40:50;21.40;99.90
11748;DHT22;5931;48.832;9.072;2023-09-19T12:43:17;21.30;99.90
11748;DHT22;5931;48.832;9.072;2023-09-19T12:45:44;21.10;99.90
11748;DHT22;5931;48.832;9.072;2023-09-19T12:48:26;21.20;99.90
11748;DHT22;5931;48.832;9.072;2023-09-19T12:51:05;21.50;99.90
11748;DHT22;5931;48.832;9.072;2023-09-19T12:56:05;21.60;99.90
11748;DHT22;5931;48.832;9.072;2023-09-19T12:58:34;21.50;99.90
11748;DHT22;5931;48.832;9.072;2023-09-19T13:01:00;21.60;99.90
11748;DHT22;5931;48.832;9.072;2023-09-19T13:03:28;21.60;99.90
11748;DHT22;5931;48.832;9.072;2023-09-19T13:05:57;21.70;99.90
11748;DHT22;5931;48.832;9.072;2023-09-19T13:08:32;21.90;99.90
11748;DHT22;5931;48.832;9.072;2023-09-19T13:11:12;22.10;99.90
11748;DHT22;5931;48.832;9.072;2023-09-19T13:16:58;22.80;99.90
11748;DHT22;5931;48.832;9.072;2023-09-19T13:19:45;23.20;99.90
11748;DHT22;5931;48.832;9.072;2023-09-19T13:22:36;23.40;99.90
11748;DHT22;5931;48.832;9.072;2023-09-19T13:25:10;23.80;99.90
11748;DHT22;5931;48.832;9.072;2023-09-19T13:27:46;23.90;99.90
11748;DHT22;5931;48.832;9.072;2023-09-19T13:30:14;23.80;99.90
11748;DHT22;5931;48.832;9.072;2023-09-19T13:32:40;23.70;99.90
11748;DHT22;5931;48.832;9.072;2023-09-19T13:35:08;23.60;99.90
11748;DHT22;5931;48.832;9.072;2023-09-19T13:37:39;23.60;99.90
11748;DHT22;5931;48.832;9.072;2023-09-19T13:40:12;23.60;99.90
11748;DHT22;5931;48.832;9.072;2023-09-19T13:42:38;23.70;99.90
11748;DHT22;5931;48.832;9.072;2023-09-19T13:45:05;23.50;99.90
11748;DHT22;5931;48.832;9.072;2023-09-19T13:47:32;23.50;99.90
11748;DHT22;5931;48.832;9.072;2023-09-19T13:49:58;23.50;99.90
11748;DHT22;5931;48.832;9.072;2023-09-19T13:52:24;23.40;99.90
11748;DHT22;5931;48.832;9.072;2023-09-19T13:54:54;23.40;99.90
11748;DHT22;5931;48.832;9.072;2023-09-19T13:57:22;23.60;99.90
11748;DHT22;5931;48.832;9.072;2023-09-19T13:59:48;23.70;99.90
11748;DHT22;5931;48.832;9.072;2023-09-19T14:02:13;23.70;99.90
11748;DHT22;5931;48.832;9.072;2023-09-19T14:04:40;23.80;99.90
11748;DHT22;5931;48.832;9.072;2023-09-19T14:07:06;24.10;99.90
11748;DHT22;5931;48.832;9.072;2023-09-19T14:09:33;24.00;99.90
11748;DHT22;5931;48.832;9.072;2023-09-19T14:11:59;24.10;99.90
11748;DHT22;5931;48.832;9.072;2023-09-19T14:14:25;24.20;99.90
11748;DHT22;5931;48.832;9.072;2023-09-19T14:16:51;24.30;99.90
11748;DHT22;5931;48.832;9.072;2023-09-19T14:19:20;24.50;99.90
11748;DHT22;5931;48.832;9.072;2023-09-19T14:21:46;24.40;99.90
11748;DHT22;5931;48.832;9.072;2023-09-19T14:24:19;24.30;99.90
11748;DHT22;5931;48.832;9.072;2023-09-19T14:26:45;24.20;99.90
11748;DHT22;5931;48.832;9.072;2023-09-19T14:29:11;24.30;99.90
11748;DHT22;5931;48.832;9.072;2023-09-19T14:31:38;24.50;99.90
11748;DHT22;5931;48.832;9.072;2023-09-19T14:34:06;24.80;99.90
11748;DHT22;5931;48.832;9.072;2023-09-19T14:36:31;25.00;99.90
11748;DHT22;5931;48.832;9.072;2023-09-19T14:38:58;25.40;99.90
11748;DHT22;5931;48.832;9.072;2023-09-19T14:41:24;26.00;99.90
11748;DHT22;5931;48.832;9.072;2023-09-19T14:43:54;26.50;99.90
11748;DHT22;5931;48.832;9.072;2023-09-19T14:46:21;26.40;99.90
11748;DHT22;5931;48.832;9.072;2023-09-19T14:48:47;27.20;99.90
11748;DHT22;5931;48.832;9.072;2023-09-19T14:51:13;27.80;99.90
11748;DHT22;5931;48.832;9.072;2023-09-19T14:53:40;27.70;99.90
11748;DHT22;5931;48.832;9.072;2023-09-19T14:56:09;27.30;99.90
11748;DHT22;5931;48.832;9.072;2023-09-19T14:58:36;26.40;99.90
11748;DHT22;5931;48.832;9.072;2023-09-19T15:01:09;25.50;99.90
11748;DHT22;5931;48.832;9.072;2023-09-19T15:03:36;24.70;99.90
11748;DHT22;5931;48.832;9.072;2023-09-19T15:06:06;24.20;99.90
11748;DHT22;5931;48.832;9.072;2023-09-19T15:08:37;23.80;99.90
11748;DHT22;5931;48.832;9.072;2023-09-19T15:11:07;23.70;99.90
11748;DHT22;5931;48.832;9.072;2023-09-19T15:13:34;24.00;99.90
11748;DHT22;5931;48.832;9.072;2023-09-19T15:16:04;24.30;99.90
11748;DHT22;5931;48.832;9.072;2023-09-19T15:18:30;25.30;99.90
11748;DHT22;5931;48.832;9.072;2023-09-19T15:21:00;25.90;99.90
11748;DHT22;5931;48.832;9.072;2023-09-19T15:23:26;25.40;99.90
11748;DHT22;5931;48.832;9.072;2023-09-19T15:25:52;25.50;99.90
11748;DHT22;5931;48.832;9.072;2023-09-19T15:28:18;26.20;99.90
11748;DHT22;5931;48.832;9.072;2023-09-19T15:30:46;26.10;99.90
11748;DHT22;5931;48.832;9.072;2023-09-19T15:33:12;25.20;99.90
11748;DHT22;5931;48.832;9.072;2023-09-19T15:35:38;24.30;99.90
11748;DHT22;5931;48.832;9.072;2023-09-19T15:38:04;23.80;99.90
11748;DHT22;5931;48.832;9.072;2023-09-19T15:40:29;23.20;99.90
11748;DHT22;5931;48.832;9.072;2023-09-19T15:42:55;22.80;99.90
11748;DHT22;5931;48.832;9.072;2023-09-19T15:45:24;22.50;99.90
11748;DHT22;5931;48.832;9.072;2023-09-19T15:47:51;22.30;99.90
11748;DHT22;5931;48.832;9.072;2023-09-19T15:50:16;22.20;99.90
11748;DHT22;5931;48.832;9.072;2023-09-19T15:52:42;21.90;99.90
11748;DHT22;5931;48.832;9.072;2023-09-19T15:55:08;21.90;99.90
11748;DHT22;5931;48.832;9.072;2023-09-19T15:57:38;21.80;99.90
11748;DHT22;5931;48.832;9.072;2023-09-19T16:00:06;21.90;99.90
11748;DHT22;5931;48.832;9.072;2023-09-19T16:02:38;21.80;99.90
11748;DHT22;5931;48.832;9.072;2023-09-19T16:05:04;21.80;99.90
11748;DHT22;5931;48.832;9.072;2023-09-19T16:07:32;21.80;99.90
11748;DHT22;5931;48.832;9.072;2023-09-19T16:10:02;22.00;99.90
11748;DHT22;5931;48.832;9.072;2023-09-19T16:12:28;22.30;99.90
11748;DHT22;5931;48.832;9.072;2023-09-19T16:14:55;22.30;99.90
11748;DHT22;5931;48.832;9.072;2023-09-19T16:17:21;22.20;99.90
11748;DHT22;5931;48.832;9.072;2023-09-19T16:19:47;22.10;99.90
11748;DHT22;5931;48.832;9.072;2023-09-19T16:22:13;21.90;99.90
11748;DHT22;5931;48.832;9.072;2023-09-19T16:24:39;21.70;99.90
11748;DHT22;5931;48.832;9.072;2023-09-19T16:27:05;21.60;99.90
11748;DHT22;5931;48.832;9.072;2023-09-19T16:29:31;21.50;99.90
11748;DHT22;5931;48.832;9.072;2023-09-19T16:31:57;21.30;99.90
11748;DHT22;5931;48.832;9.072;2023-09-19T16:34:22;21.30;99.90
11748;DHT22;5931;48.832;9.072;2023-09-19T16:36:48;21.30;99.90
11748;DHT22;5931;48.832;9.072;2023-09-19T16:39:14;21.20;99.90
11748;DHT22;5931;48.832;9.072;2023-09-19T16:41:39;21.10;99.90
11748;DHT22;5931;48.832;9.072;2023-09-19T16:44:07;21.00;99.90